createdAt,value
2018-06-28T00:01:00.583Z,69.12
2018-06-28T00:02:41.406Z,69.03
2018-06-28T00:04:18.575Z,69.52
2018-06-28T00:06:00.628Z,69.94
2018-06-28T00:07:36.902Z,69.09
2018-06-28T00:09:14.569Z,69.51
2018-06-28T00:10:51.278Z,69.18
2018-06-28T00:12:27.054Z,69.88
2018-06-28T00:14:02.757Z,70.05
2018-06-28T00:15:40.734Z,70.37
2018-06-28T00:17:17.312Z,70.29
2018-06-28T00:18:59.718Z,70.99
2018-06-28T00:20:36.043Z,70.73
2018-06-28T00:22:12.294Z,70.91
2018-06-28T00:23:48.195Z,70.75
2018-06-28T00:25:25.682Z,71.33
2018-06-28T00:27:01.128Z,71.18
2018-06-28T00:28:37.286Z,71.18
2018-06-28T00:30:15.897Z,71.75
2018-06-28T00:31:52.054Z,71.82
2018-06-28T00:33:33.106Z,71.26
2018-06-28T00:35:09.322Z,71.82
2018-06-28T00:36:46.836Z,71.47
2018-06-28T00:38:26.154Z,71.71
2018-06-28T00:40:05.493Z,71.65
2018-06-28T00:41:41.687Z,71.36
2018-06-28T00:43:17.756Z,72.01
2018-06-28T00:44:55.888Z,71.44
2018-06-28T00:46:32.243Z,71.29
2018-06-28T00:48:08.286Z,71.51
2018-06-28T00:49:43.273Z,71.16
2018-06-28T00:51:18.884Z,71.34
2018-06-28T00:52:54.245Z,72.00
2018-06-28T00:54:30.151Z,71.91
2018-06-28T00:56:07.223Z,71.48
2018-06-28T00:57:47.528Z,72.23
2018-06-28T00:59:25.574Z,72.34
2018-06-28T01:01:01.413Z,72.04
2018-06-28T01:02:36.752Z,72.14
2018-06-28T01:04:14.523Z,72.11
2018-06-28T01:05:50.071Z,72.15
2018-06-28T01:07:28.355Z,72.13
2018-06-28T01:09:04.063Z,71.92
2018-06-28T01:10:40.153Z,71.41
2018-06-28T01:12:15.462Z,71.72
2018-06-28T01:13:51.015Z,71.45
2018-06-28T01:15:26.139Z,71.38
2018-06-28T01:17:01.103Z,71.33
2018-06-28T01:18:35.925Z,71.51
2018-06-28T01:20:12.288Z,71.07
2018-06-28T01:21:47.397Z,71.43
2018-06-28T01:23:22.576Z,71.47
2018-06-28T01:24:57.923Z,71.44
2018-06-28T01:26:34.951Z,71.25
2018-06-28T01:28:09.717Z,71.10
2018-06-28T01:29:44.436Z,71.35
2018-06-28T01:33:16.423Z,71.33
2018-06-28T01:34:52.046Z,71.38
2018-06-28T01:36:27.007Z,71.66
2018-06-28T01:38:02.043Z,71.55
2018-06-28T01:39:37.718Z,71.69
2018-06-28T01:41:12.605Z,72.05
2018-06-28T01:42:59.268Z,72.37
2018-06-28T01:44:34.122Z,72.56
2018-06-28T01:46:09.169Z,72.61
2018-06-28T01:47:44.772Z,72.96
2018-06-28T01:49:19.606Z,73.09
2018-06-28T01:50:55.305Z,72.91
2018-06-28T01:52:31.643Z,73.19
2018-06-28T01:54:07.950Z,73.12
2018-06-28T01:55:44.331Z,73.10
2018-06-28T01:57:19.910Z,73.73
2018-06-28T01:58:56.255Z,73.52
2018-06-28T02:00:31.095Z,74.31
2018-06-28T02:02:06.713Z,74.55
2018-06-28T02:03:43.191Z,74.28
2018-06-28T02:05:19.433Z,74.82
2018-06-28T02:07:00.019Z,74.07
2018-06-28T02:08:35.475Z,74.76
2018-06-28T02:10:10.753Z,75.16
2018-06-28T02:11:45.801Z,75.31
2018-06-28T02:13:21.993Z,75.48
2018-06-28T02:14:57.411Z,75.44
2018-06-28T02:16:32.684Z,75.63
2018-06-28T02:18:09.305Z,75.79
2018-06-28T02:19:44.538Z,76.04
2018-06-28T02:21:19.333Z,75.79
2018-06-28T02:22:54.567Z,76.64
2018-06-28T02:24:30.311Z,76.11
2018-06-28T02:26:05.130Z,76.26
2018-06-28T02:27:42.301Z,75.79
2018-06-28T02:29:18.085Z,76.62
2018-06-28T02:30:54.748Z,76.52
2018-06-28T02:32:30.528Z,77.11
2018-06-28T02:34:07.347Z,76.57
2018-06-28T02:35:42.274Z,76.43
2018-06-28T02:37:19.223Z,76.46
2018-06-28T02:38:56.468Z,76.44
2018-06-28T02:40:31.396Z,76.29
2018-06-28T02:42:06.702Z,76.82
2018-06-28T02:43:41.569Z,76.71
2018-06-28T02:45:16.460Z,76.52
2018-06-28T02:48:30.667Z,76.34
2018-06-28T02:50:05.974Z,76.51
2018-06-28T02:51:41.014Z,76.51
2018-06-28T02:53:16.032Z,76.06
2018-06-28T02:54:52.704Z,76.31
2018-06-28T02:56:27.865Z,76.45
2018-06-28T02:58:02.684Z,76.93
2018-06-28T02:59:39.442Z,77.00
2018-06-28T03:01:14.311Z,76.93
2018-06-28T03:02:50.580Z,77.17
2018-06-28T03:04:25.324Z,77.65
2018-06-28T03:06:00.100Z,77.90
2018-06-28T03:07:37.504Z,77.13
2018-06-28T03:09:13.907Z,77.33
2018-06-28T03:10:59.953Z,77.50
2018-06-28T03:12:34.660Z,77.08
2018-06-28T03:14:10.308Z,76.97
2018-06-28T03:15:45.220Z,76.71
2018-06-28T03:17:20.461Z,76.74
2018-06-28T03:18:55.985Z,76.76
2018-06-28T03:20:30.942Z,76.59
2018-06-28T03:22:05.779Z,76.77
2018-06-28T03:23:40.506Z,76.19
2018-06-28T03:25:16.275Z,76.32
2018-06-28T03:26:51.107Z,75.90
2018-06-28T03:28:25.829Z,75.47
2018-06-28T03:30:00.622Z,75.59
2018-06-28T03:31:35.507Z,75.29
2018-06-28T03:33:12.625Z,75.54
2018-06-28T03:34:47.417Z,75.44
2018-06-28T03:36:22.242Z,75.23
2018-06-28T03:37:57.181Z,75.01
2018-06-28T03:39:32.323Z,74.97
2018-06-28T03:41:07.625Z,75.20
2018-06-28T03:42:43.248Z,75.07
2018-06-28T03:44:17.952Z,75.33
2018-06-28T03:45:53.398Z,75.37
2018-06-28T03:47:29.220Z,75.10
2018-06-28T03:49:05.325Z,75.28
2018-06-28T03:50:42.568Z,75.24
2018-06-28T03:52:20.253Z,75.78
2018-06-28T03:53:56.049Z,75.52
2018-06-28T03:55:30.839Z,75.70
2018-06-28T03:57:05.615Z,75.81
2018-06-28T03:58:41.334Z,75.97
2018-06-28T04:00:17.495Z,75.80
2018-06-28T04:01:52.691Z,75.67
2018-06-28T04:03:27.866Z,75.79
2018-06-28T04:05:03.170Z,75.74
2018-06-28T04:06:37.936Z,75.82
2018-06-28T04:08:13.671Z,76.07
2018-06-28T04:09:48.828Z,76.10
2018-06-28T04:11:23.917Z,76.45
2018-06-28T04:13:00.091Z,76.51
2018-06-28T04:14:34.889Z,76.99
2018-06-28T04:16:10.741Z,76.63
2018-06-28T04:17:45.750Z,76.45
2018-06-28T04:19:21.126Z,76.09
2018-06-28T04:20:57.457Z,76.72
2018-06-28T04:22:33.264Z,77.10
2018-06-28T04:24:09.051Z,77.05
2018-06-28T04:25:43.725Z,76.85
2018-06-28T04:27:18.822Z,77.44
2018-06-28T04:28:53.721Z,77.28
2018-06-28T04:30:28.582Z,77.37
2018-06-28T04:32:07.164Z,77.57
2018-06-28T04:33:41.933Z,77.02
2018-06-28T04:35:20.647Z,77.66
2018-06-28T04:36:55.833Z,77.15
2018-06-28T04:38:30.634Z,76.82
2018-06-28T04:40:05.658Z,77.16
2018-06-28T04:41:40.671Z,77.52
2018-06-28T04:43:16.212Z,77.32
2018-06-28T04:44:50.906Z,77.05
2018-06-28T04:46:26.029Z,77.38
2018-06-28T04:48:00.948Z,76.52
2018-06-28T04:49:35.788Z,76.38
2018-06-28T04:51:11.125Z,76.40
2018-06-28T04:52:46.185Z,76.05
2018-06-28T04:54:20.985Z,76.16
2018-06-28T04:55:56.153Z,75.15
2018-06-28T04:57:41.549Z,73.93
2018-06-28T04:59:18.256Z,73.49
2018-06-28T05:00:53.239Z,72.41
2018-06-28T05:02:28.506Z,72.01
2018-06-28T05:04:04.342Z,72.18
2018-06-28T05:05:41.599Z,71.89
2018-06-28T05:07:16.423Z,69.88
2018-06-28T05:08:51.434Z,69.03
2018-06-28T05:10:26.665Z,68.36
2018-06-28T05:12:01.630Z,67.80
2018-06-28T05:13:40.467Z,66.66
2018-06-28T05:15:35.361Z,67.78
2018-06-28T05:17:10.395Z,67.16
2018-06-28T05:20:39.060Z,65.56
2018-06-28T05:22:23.229Z,63.66
2018-06-28T05:24:04.881Z,63.66
2018-06-28T05:25:44.108Z,62.02
2018-06-28T05:27:21.183Z,61.89
2018-06-28T05:28:55.919Z,61.80
2018-06-28T05:30:31.111Z,60.17
2018-06-28T05:32:06.805Z,59.28
2018-06-28T05:33:41.111Z,60.22
2018-06-28T05:35:16.300Z,58.51
2018-06-28T05:36:51.414Z,58.97
2018-06-28T05:38:26.356Z,58.33
2018-06-28T05:40:01.608Z,57.76
2018-06-28T05:41:36.493Z,58.48
2018-06-28T05:43:12.903Z,57.78
2018-06-28T05:44:48.306Z,58.08
2018-06-28T05:46:26.547Z,58.36
2018-06-28T05:48:08.032Z,56.39
2018-06-28T05:49:44.416Z,55.05
2018-06-28T05:51:19.776Z,56.29
2018-06-28T05:52:54.532Z,54.74
2018-06-28T05:54:29.447Z,52.74
2018-06-28T05:56:04.324Z,54.30
2018-06-28T05:57:39.817Z,53.61
2018-06-28T05:59:14.971Z,52.32
2018-06-28T06:00:49.819Z,52.34
2018-06-28T06:02:24.669Z,52.13
2018-06-28T06:04:01.325Z,49.68
2018-06-28T06:05:54.006Z,50.95
2018-06-28T06:07:53.922Z,49.04
2018-06-28T06:09:29.002Z,48.27
2018-06-28T06:11:04.360Z,48.65
2018-06-28T06:12:40.635Z,48.23
2018-06-28T06:14:17.963Z,48.22
2018-06-28T06:15:53.579Z,47.66
2018-06-28T06:17:43.781Z,49.04
2018-06-28T06:19:21.136Z,48.77
2018-06-28T06:20:56.616Z,45.43
2018-06-28T06:22:33.326Z,43.91
2018-06-28T06:24:16.101Z,43.76
2018-06-28T06:25:53.943Z,43.98
2018-06-28T06:27:29.013Z,42.96
2018-06-28T06:29:04.565Z,43.23
2018-06-28T06:30:44.085Z,42.91
2018-06-28T06:32:19.340Z,43.58
2018-06-28T06:33:58.224Z,42.17
2018-06-28T06:35:41.257Z,42.66
2018-06-28T06:37:16.898Z,42.34
2018-06-28T06:38:56.052Z,41.80
2018-06-28T06:40:35.786Z,42.98
2018-06-28T06:42:21.371Z,44.38
2018-06-28T06:44:05.651Z,42.23
2018-06-28T06:45:42.511Z,42.01
2018-06-28T06:47:38.158Z,41.71
2018-06-28T06:49:30.940Z,42.71
2018-06-28T06:52:12.345Z,41.53
2018-06-28T06:53:53.715Z,43.28
2018-06-28T06:55:33.138Z,42.28
2018-06-28T06:57:12.091Z,42.53
2018-06-28T06:58:55.518Z,42.18
2018-06-28T07:00:41.595Z,42.43
2018-06-28T07:02:19.382Z,42.73
2018-06-28T07:04:05.496Z,42.81
2018-06-28T07:05:41.399Z,41.70
2018-06-28T07:07:18.320Z,41.71
2018-06-28T07:09:00.031Z,42.10
2018-06-28T07:10:51.328Z,42.77
2018-06-28T07:12:34.324Z,42.64
2018-06-28T07:14:15.657Z,42.82
2018-06-28T07:15:57.259Z,42.07
2018-06-28T07:17:35.244Z,42.30
2018-06-28T07:19:22.079Z,42.13
2018-06-28T07:21:22.531Z,41.94
2018-06-28T07:23:06.228Z,42.17
2018-06-28T07:24:48.248Z,42.04
2018-06-28T07:26:25.082Z,41.89
2018-06-28T07:28:04.017Z,42.00
2018-06-28T07:29:41.702Z,41.40
2018-06-28T07:31:16.928Z,42.32
2018-06-28T07:33:01.921Z,41.85
2018-06-28T07:34:36.946Z,41.90
2018-06-28T07:38:07.793Z,40.92
2018-06-28T07:39:45.990Z,40.86
2018-06-28T07:41:30.041Z,41.20
2018-06-28T07:43:16.375Z,39.78
2018-06-28T07:44:57.010Z,40.36
2018-06-28T07:46:35.778Z,40.82
2018-06-28T07:48:11.737Z,39.28
2018-06-28T07:49:53.940Z,40.62
2018-06-28T07:51:34.243Z,41.01
2018-06-28T07:53:10.199Z,39.59
2018-06-28T07:54:46.488Z,41.00
2018-06-28T07:56:28.171Z,40.04
2018-06-28T07:58:09.630Z,41.00
2018-06-28T07:59:49.692Z,40.16
2018-06-28T08:03:11.364Z,41.60
2018-06-28T08:04:56.880Z,38.82
2018-06-28T08:06:40.130Z,40.39
2018-06-28T08:08:16.696Z,40.68
2018-06-28T08:09:56.803Z,39.64
2018-06-28T08:11:39.503Z,39.63
2018-06-28T08:13:33.510Z,40.02
2018-06-28T08:20:12.451Z,40.02
2018-06-28T08:21:50.201Z,39.66
2018-06-28T08:23:26.872Z,40.03
2018-06-28T08:25:04.763Z,41.74
2018-06-28T08:26:51.579Z,41.54
2018-06-28T08:28:32.801Z,40.16
2018-06-28T08:30:16.844Z,39.58
2018-06-28T08:31:53.022Z,39.21
2018-06-28T08:33:31.756Z,39.67
2018-06-28T08:35:10.826Z,39.23
2018-06-28T08:36:53.630Z,39.80
2018-06-28T08:38:32.598Z,39.60
2018-06-28T08:40:17.253Z,39.24
2018-06-28T08:42:05.160Z,39.92
2018-06-28T08:43:42.744Z,38.91
2018-06-28T08:45:23.340Z,39.10
2018-06-28T08:47:01.325Z,38.79
2018-06-28T08:48:40.568Z,38.10
2018-06-28T08:50:16.392Z,39.22
2018-06-28T08:51:53.121Z,37.73
2018-06-28T08:53:32.234Z,38.12
2018-06-28T08:55:08.560Z,36.79
2018-06-28T08:56:48.578Z,37.49
2018-06-28T08:58:25.761Z,37.38
2018-06-28T09:02:07.269Z,37.90
2018-06-28T09:03:46.162Z,36.88
2018-06-28T09:05:23.238Z,37.48
2018-06-28T09:07:06.934Z,37.28
2018-06-28T09:08:45.406Z,36.66
2018-06-28T09:10:20.809Z,35.95
2018-06-28T09:11:59.273Z,37.61
2018-06-28T09:17:43.210Z,36.69
2018-06-28T09:21:45.344Z,36.19
2018-06-28T09:23:32.842Z,36.67
2018-06-28T09:27:25.817Z,36.88
2018-06-28T09:29:02.902Z,37.20
2018-06-28T09:30:39.314Z,36.91
2018-06-28T09:32:20.663Z,36.52
2018-06-28T09:36:10.683Z,35.79
2018-06-28T09:37:52.470Z,36.02
2018-06-28T09:39:33.319Z,36.73
2018-06-28T09:41:10.179Z,37.98
2018-06-28T09:42:57.215Z,37.10
2018-06-28T09:44:38.743Z,39.18
2018-06-28T09:46:24.766Z,37.85
2018-06-28T09:48:11.046Z,38.22
2018-06-28T09:49:47.449Z,39.64
2018-06-28T09:51:36.239Z,39.14
2018-06-28T09:53:17.838Z,37.85
2018-06-28T09:55:06.174Z,37.21
2018-06-28T09:56:47.446Z,37.02
2018-06-28T09:58:25.167Z,37.88
2018-06-28T10:00:01.009Z,37.19
2018-06-28T10:01:37.435Z,36.79
2018-06-28T10:03:16.217Z,35.46
2018-06-28T10:04:52.939Z,37.56
2018-06-28T10:06:28.410Z,35.29
2018-06-28T10:08:03.773Z,34.99
2018-06-28T10:09:42.388Z,36.60
2018-06-28T10:11:31.152Z,35.07
2018-06-28T10:13:08.850Z,37.30
2018-06-28T10:14:44.404Z,36.23
2018-06-28T10:16:26.686Z,35.27
2018-06-28T10:18:04.200Z,36.33
2018-06-28T10:19:41.915Z,36.03
2018-06-28T10:21:18.952Z,35.88
2018-06-28T10:22:59.807Z,34.53
2018-06-28T10:24:36.813Z,34.58
2018-06-28T10:26:15.486Z,35.17
2018-06-28T10:27:52.854Z,33.95
2018-06-28T10:29:28.451Z,34.36
2018-06-28T10:31:07.318Z,35.25
2018-06-28T10:32:48.873Z,35.68
2018-06-28T10:34:26.842Z,34.46
2018-06-28T10:36:02.921Z,34.29
2018-06-28T10:37:39.710Z,33.20
2018-06-28T10:39:18.291Z,34.99
2018-06-28T10:40:56.166Z,33.94
2018-06-28T10:42:34.415Z,34.44
2018-06-28T10:44:14.660Z,34.36
2018-06-28T10:45:50.347Z,33.49
2018-06-28T10:47:27.264Z,31.82
2018-06-28T10:49:14.994Z,32.72
2018-06-28T10:50:52.920Z,32.00
2018-06-28T10:52:31.401Z,31.33
2018-06-28T10:54:07.407Z,30.49
2018-06-28T10:55:44.011Z,30.57
2018-06-28T10:57:38.473Z,30.83
2018-06-28T10:59:18.385Z,32.79
2018-06-28T11:02:05.231Z,32.10
2018-06-28T11:03:45.347Z,32.57
2018-06-28T11:05:20.421Z,33.21
2018-06-28T11:07:05.973Z,32.44
2018-06-28T11:08:45.898Z,31.06
2018-06-28T11:10:22.968Z,33.29
2018-06-28T11:12:00.703Z,32.76
2018-06-28T11:13:37.412Z,32.78
2018-06-28T11:15:16.079Z,32.50
2018-06-28T11:16:58.249Z,34.30
2018-06-28T11:18:34.792Z,32.43
2018-06-28T11:20:11.778Z,35.47
2018-06-28T11:21:49.250Z,35.35
2018-06-28T11:23:25.497Z,35.08
2018-06-28T11:25:01.641Z,35.13
2018-06-28T11:26:40.560Z,34.08
2018-06-28T11:28:18.127Z,34.29
2018-06-28T11:29:53.882Z,34.68
2018-06-28T11:31:31.708Z,35.27
2018-06-28T11:33:09.846Z,34.35
2018-06-28T11:34:53.488Z,36.18
2018-06-28T11:36:31.511Z,35.95
2018-06-28T11:38:07.705Z,35.30
2018-06-28T11:39:48.023Z,35.28
2018-06-28T11:41:25.664Z,36.48
2018-06-28T11:43:03.123Z,35.68
2018-06-28T11:44:41.612Z,35.20
2018-06-28T11:46:20.119Z,36.13
2018-06-28T11:47:55.490Z,36.27
2018-06-28T11:49:30.778Z,35.95
2018-06-28T11:51:07.497Z,34.66
2018-06-28T11:52:43.773Z,34.84
2018-06-28T11:54:19.345Z,35.84
2018-06-28T11:56:02.402Z,38.13
2018-06-28T11:57:38.258Z,35.66
2018-06-28T11:59:16.065Z,33.63
2018-06-28T12:00:51.284Z,32.80
2018-06-28T12:02:27.809Z,33.61
2018-06-28T12:04:04.364Z,33.43
2018-06-28T12:05:40.793Z,34.31
2018-06-28T12:07:16.800Z,32.56
2018-06-28T12:08:53.628Z,34.09
2018-06-28T12:10:30.898Z,33.68
2018-06-28T12:12:07.680Z,33.72
2018-06-28T12:13:44.279Z,32.79
2018-06-28T12:15:22.501Z,32.06
2018-06-28T12:17:00.356Z,33.07
2018-06-28T12:18:36.235Z,31.68
2018-06-28T12:20:13.921Z,33.87
2018-06-28T12:21:49.220Z,33.49
2018-06-28T12:23:26.701Z,32.81
2018-06-28T12:25:02.213Z,33.63
2018-06-28T12:26:40.937Z,33.26
2018-06-28T12:28:19.660Z,32.92
2018-06-28T12:30:03.562Z,32.75
2018-06-28T12:31:41.465Z,32.83
2018-06-28T12:33:17.720Z,32.54
2018-06-28T12:34:54.462Z,33.03
2018-06-28T12:36:31.960Z,34.82
2018-06-28T12:38:11.939Z,36.62
2018-06-28T12:39:47.416Z,36.36
2018-06-28T12:41:22.409Z,36.70
2018-06-28T12:42:59.592Z,35.38
2018-06-28T12:44:34.612Z,34.80
2018-06-28T12:46:13.110Z,34.73
2018-06-28T12:48:00.616Z,33.07
2018-06-28T12:49:38.344Z,33.52
2018-06-28T12:51:13.903Z,32.86
2018-06-28T12:53:07.640Z,33.83
2018-06-28T12:54:44.282Z,33.59
2018-06-28T12:56:29.746Z,32.05
2018-06-28T13:00:23.357Z,31.07
2018-06-28T13:02:01.937Z,32.90
2018-06-28T13:03:39.211Z,32.87
2018-06-28T13:05:17.160Z,32.77
2018-06-28T13:06:52.933Z,32.44
2018-06-28T13:08:30.470Z,32.43
2018-06-28T13:10:08.938Z,32.87
2018-06-28T13:11:47.002Z,30.85
2018-06-28T13:13:24.717Z,32.65
2018-06-28T13:15:08.383Z,32.67
2018-06-28T13:16:48.100Z,31.17
2018-06-28T13:18:25.932Z,31.92
2018-06-28T13:20:04.874Z,31.86
2018-06-28T13:21:42.234Z,32.16
2018-06-28T13:23:22.870Z,33.11
2018-06-28T13:24:59.180Z,32.25
2018-06-28T13:26:40.105Z,33.81
2018-06-28T13:28:16.422Z,34.18
2018-06-28T13:29:54.117Z,33.33
2018-06-28T13:31:35.888Z,33.09
2018-06-28T13:33:13.881Z,33.29
2018-06-28T13:34:55.991Z,33.44
2018-06-28T13:36:43.250Z,32.66
2018-06-28T13:38:22.850Z,32.85
2018-06-28T13:40:05.072Z,32.43
2018-06-28T13:41:43.372Z,32.36
2018-06-28T13:43:20.231Z,32.28
2018-06-28T13:44:59.235Z,33.39
2018-06-28T13:46:37.694Z,33.24
2018-06-28T13:48:29.281Z,33.18
2018-06-28T13:50:12.916Z,35.50
2018-06-28T13:51:52.358Z,34.60
2018-06-28T13:53:35.512Z,34.25
2018-06-28T13:55:21.361Z,32.55
2018-06-28T14:01:13.645Z,33.47
2018-06-28T14:02:59.571Z,34.58
2018-06-28T14:04:35.201Z,32.02
2018-06-28T14:06:14.104Z,31.44
2018-06-28T14:07:49.271Z,31.65
2018-06-28T14:09:43.817Z,32.38
2018-06-28T14:11:22.989Z,33.67
2018-06-28T14:12:58.654Z,33.05
2018-06-28T14:14:35.299Z,32.19
2018-06-28T14:16:16.749Z,33.63
2018-06-28T14:17:52.284Z,33.51
2018-06-28T14:19:30.321Z,33.42
2018-06-28T14:21:06.622Z,33.11
2018-06-28T14:22:42.933Z,34.28
2018-06-28T14:24:21.423Z,33.00
2018-06-28T14:26:00.135Z,33.87
2018-06-28T14:27:43.927Z,35.30
2018-06-28T14:29:20.508Z,35.08
2018-06-28T14:30:57.109Z,33.77
2018-06-28T14:32:39.467Z,33.95
2018-06-28T14:34:14.511Z,33.74
2018-06-28T14:35:50.506Z,34.39
2018-06-28T14:37:26.610Z,34.69
2018-06-28T14:39:03.938Z,33.38
2018-06-28T14:40:40.737Z,33.24
2018-06-28T14:42:17.383Z,33.25
2018-06-28T14:43:54.547Z,33.63
2018-06-28T14:45:31.139Z,34.52
2018-06-28T14:47:06.356Z,34.01
2018-06-28T14:48:43.305Z,34.48
2018-06-28T14:50:21.579Z,33.83
2018-06-28T14:51:57.607Z,33.11
2018-06-28T14:53:34.265Z,32.81
2018-06-28T14:55:10.998Z,33.60
2018-06-28T14:56:48.018Z,33.84
2018-06-28T14:58:26.109Z,33.44
2018-06-28T15:00:04.440Z,34.89
2018-06-28T15:01:43.391Z,33.02
2018-06-28T15:03:19.527Z,32.57
2018-06-28T15:04:59.114Z,32.98
2018-06-28T15:06:38.263Z,32.95
2018-06-28T15:08:14.014Z,33.83
2018-06-28T15:09:51.678Z,32.81
2018-06-28T15:13:15.323Z,31.88
2018-06-28T15:15:00.623Z,32.15
2018-06-28T15:16:39.787Z,32.93
2018-06-28T15:18:18.382Z,34.93
2018-06-28T15:20:04.007Z,33.97
2018-06-28T15:21:44.832Z,34.43
2018-06-28T15:23:21.672Z,35.10
2018-06-28T15:25:00.294Z,35.58
2018-06-28T15:26:37.613Z,35.15
2018-06-28T15:28:14.935Z,34.34
2018-06-28T15:29:52.458Z,34.27
2018-06-28T15:31:29.688Z,35.94
2018-06-28T15:33:05.279Z,35.25
2018-06-28T15:34:42.242Z,35.26
2018-06-28T15:36:43.361Z,35.07
2018-06-28T15:38:27.758Z,35.22
2018-06-28T15:40:23.931Z,34.38
2018-06-28T15:42:00.609Z,34.00
2018-06-28T15:43:35.932Z,34.44
2018-06-28T15:45:15.979Z,34.37
2018-06-28T15:46:53.824Z,32.78
2018-06-28T15:48:29.912Z,32.79
2018-06-28T15:50:08.402Z,33.59
2018-06-28T15:51:46.999Z,34.27
2018-06-28T15:55:27.094Z,36.28
2018-06-28T15:57:03.538Z,36.23
2018-06-28T15:58:47.304Z,37.24
2018-06-28T16:00:27.780Z,35.35
2018-06-28T16:02:09.323Z,35.99
2018-06-28T16:03:57.413Z,35.52
2018-06-28T16:05:42.704Z,35.81
2018-06-28T16:07:20.992Z,34.74
2018-06-28T16:09:00.386Z,36.46
2018-06-28T16:10:36.069Z,33.90
2018-06-28T16:12:19.664Z,34.56
2018-06-28T16:16:07.280Z,35.97
2018-06-28T16:17:45.263Z,34.67
2018-06-28T16:19:22.409Z,36.86
2018-06-28T16:21:00.531Z,34.89
2018-06-28T16:22:39.679Z,35.13
2018-06-28T16:24:19.963Z,36.27
2018-06-28T16:26:00.323Z,34.67
2018-06-28T16:27:44.482Z,36.04
2018-06-28T16:29:23.931Z,36.15
2018-06-28T16:31:01.068Z,35.24
2018-06-28T16:32:37.688Z,35.16
2018-06-28T16:34:14.184Z,34.71
2018-06-28T16:35:52.085Z,37.13
2018-06-28T16:37:27.838Z,36.04
2018-06-28T16:39:05.045Z,36.43
2018-06-28T16:40:42.869Z,36.43
2018-06-28T16:42:18.069Z,36.15
2018-06-28T16:43:54.258Z,35.49
2018-06-28T16:45:31.457Z,36.56
2018-06-28T16:47:07.890Z,36.39
2018-06-28T16:48:43.929Z,35.90
2018-06-28T16:50:19.668Z,35.53
2018-06-28T16:52:00.851Z,36.77
2018-06-28T16:53:41.402Z,36.54
2018-06-28T16:55:18.376Z,36.47
2018-06-28T16:56:59.801Z,37.62
2018-06-28T16:58:37.575Z,36.09
2018-06-28T17:00:19.241Z,36.64
2018-06-28T17:01:59.905Z,36.24
2018-06-28T17:03:37.254Z,38.04
2018-06-28T17:06:49.660Z,35.43
2018-06-28T17:08:29.765Z,36.39
2018-06-28T17:10:14.843Z,36.54
2018-06-28T17:11:52.064Z,36.54
2018-06-28T17:13:29.785Z,37.41
2018-06-28T17:15:14.833Z,37.61
2018-06-28T17:16:51.042Z,37.60
2018-06-28T17:18:29.547Z,36.18
2018-06-28T17:20:16.270Z,36.37
2018-06-28T17:21:54.041Z,37.39
2018-06-28T17:23:30.823Z,37.71
2018-06-28T17:25:06.349Z,36.84
2018-06-28T17:26:42.536Z,38.52
2018-06-28T17:28:20.836Z,37.58
2018-06-28T17:29:56.429Z,37.97
2018-06-28T17:31:32.476Z,37.39
2018-06-28T17:33:10.457Z,38.12
2018-06-28T17:34:45.860Z,37.96
2018-06-28T17:36:21.024Z,38.83
2018-06-28T17:38:02.499Z,37.80
2018-06-28T17:39:39.684Z,38.84
2018-06-28T17:41:20.220Z,38.11
2018-06-28T17:42:58.290Z,38.24
2018-06-28T17:44:34.528Z,39.01
2018-06-28T17:46:11.066Z,39.12
2018-06-28T17:47:54.262Z,38.61
2018-06-28T17:49:33.227Z,38.89
2018-06-28T17:51:20.020Z,38.40
2018-06-28T17:53:00.332Z,38.50
2018-06-28T17:54:45.821Z,39.02
2018-06-28T17:56:26.244Z,39.83
2018-06-28T17:58:11.520Z,38.91
2018-06-28T17:59:59.965Z,38.85
2018-06-28T18:01:43.959Z,39.31
2018-06-28T18:03:24.427Z,39.84
2018-06-28T18:05:07.857Z,39.96
2018-06-28T18:06:47.380Z,39.92
2018-06-28T18:10:18.049Z,40.46
2018-06-28T18:12:04.799Z,40.37
2018-06-28T18:13:46.925Z,40.51
2018-06-28T18:15:23.744Z,40.62
2018-06-28T18:17:05.810Z,40.73
2018-06-28T18:18:44.461Z,40.91
2018-06-28T18:20:27.526Z,41.79
2018-06-28T18:22:06.397Z,41.52
2018-06-28T18:23:43.091Z,40.67
2018-06-28T18:25:22.577Z,41.40
2018-06-28T18:27:01.159Z,41.33
2018-06-28T18:28:37.672Z,41.08
2018-06-28T18:30:20.601Z,41.23
2018-06-28T18:32:04.477Z,41.64
2018-06-28T18:35:53.732Z,40.79
2018-06-28T18:37:34.480Z,41.20
2018-06-28T18:39:20.568Z,42.16
2018-06-28T18:40:59.604Z,42.29
2018-06-28T18:42:40.425Z,41.17
2018-06-28T18:44:21.681Z,42.49
2018-06-28T18:46:00.619Z,41.85
2018-06-28T18:47:40.325Z,41.74
2018-06-28T18:49:22.660Z,42.05
2018-06-28T18:51:09.399Z,42.40
2018-06-28T18:52:48.433Z,42.71
2018-06-28T18:54:30.744Z,42.32
2018-06-28T18:56:10.354Z,41.98
2018-06-28T18:57:46.988Z,41.81
2018-06-28T18:59:23.406Z,42.82
2018-06-28T19:01:07.459Z,43.40
2018-06-28T19:02:46.419Z,43.66
2018-06-28T19:04:29.448Z,43.57
2018-06-28T19:06:10.474Z,43.65
2018-06-28T19:07:53.360Z,43.72
2018-06-28T19:09:43.667Z,44.02
2018-06-28T19:11:26.581Z,43.78
2018-06-28T19:13:08.234Z,43.88
2018-06-28T19:14:50.281Z,43.96
2018-06-28T19:16:34.300Z,44.89
2018-06-28T19:18:10.942Z,45.15
2018-06-28T19:19:49.637Z,45.60
2018-06-28T19:21:31.512Z,46.12
2018-06-28T19:23:20.057Z,45.53
2018-06-28T19:24:59.164Z,46.31
2018-06-28T19:28:28.222Z,46.90
2018-06-28T19:30:29.715Z,46.88
2018-06-28T19:32:11.392Z,47.75
2018-06-28T19:34:00.005Z,48.05
2018-06-28T19:35:39.491Z,48.35
2018-06-28T19:37:23.214Z,48.55
2018-06-28T19:39:10.605Z,48.61
2018-06-28T19:41:07.641Z,49.02
2018-06-28T19:44:08.314Z,50.12
2018-06-28T19:48:11.914Z,49.61
2018-06-28T19:49:56.398Z,49.11
2018-06-28T19:51:45.122Z,49.99
2018-06-28T19:53:26.051Z,50.12
2018-06-28T19:55:09.741Z,50.54
2018-06-28T19:56:47.552Z,50.62
2018-06-28T19:58:22.810Z,50.09
2018-06-28T20:00:09.337Z,50.15
2018-06-28T20:01:52.273Z,50.61
2018-06-28T20:03:38.407Z,51.02
2018-06-28T20:05:19.535Z,50.84
2018-06-28T20:06:56.662Z,51.46
2018-06-28T20:08:35.912Z,50.85
2018-06-28T20:10:18.251Z,51.18
2018-06-28T20:11:58.522Z,52.38
2018-06-28T20:13:39.375Z,52.62
2018-06-28T20:15:28.387Z,53.20
2018-06-28T20:17:20.407Z,53.66
2018-06-28T20:19:04.812Z,54.03
2018-06-28T20:20:45.437Z,53.72
2018-06-28T20:22:25.807Z,54.74
2018-06-28T20:24:12.195Z,54.79
2018-06-28T20:25:51.243Z,54.35
2018-06-28T20:27:32.989Z,54.23
2018-06-28T20:29:18.031Z,53.60
2018-06-28T20:32:52.719Z,53.95
2018-06-28T20:34:36.422Z,53.90
2018-06-28T20:36:23.753Z,54.58
2018-06-28T20:38:01.243Z,54.47
2018-06-28T20:39:55.766Z,54.11
2018-06-28T20:41:34.537Z,54.04
2018-06-28T20:43:18.796Z,54.31
2018-06-28T20:45:00.124Z,54.08
2018-06-28T20:46:51.266Z,53.33
2018-06-28T20:48:36.253Z,54.48
2018-06-28T20:50:22.852Z,53.70
2018-06-28T20:52:04.712Z,54.15
2018-06-28T20:53:43.424Z,54.18
2018-06-28T20:55:23.731Z,53.79
2018-06-28T20:57:01.972Z,53.71
2018-06-28T20:58:44.434Z,54.38
2018-06-28T21:00:23.254Z,53.47
2018-06-28T21:02:02.028Z,53.23
2018-06-28T21:03:41.231Z,54.11
2018-06-28T21:05:20.520Z,53.49
2018-06-28T21:07:04.483Z,53.59
2018-06-28T21:08:44.127Z,53.44
2018-06-28T21:10:20.270Z,53.28
2018-06-28T21:12:02.704Z,52.97
2018-06-28T21:13:42.223Z,53.37
2018-06-28T21:15:20.773Z,52.05
2018-06-28T21:17:01.672Z,53.11
2018-06-28T21:18:40.596Z,52.08
2018-06-28T21:20:19.258Z,51.80
2018-06-28T21:27:16.413Z,51.71
2018-06-28T21:35:01.914Z,51.04
2018-06-28T21:36:44.726Z,52.13
2018-06-28T21:38:30.578Z,51.36
2018-06-28T21:40:07.655Z,51.72
2018-06-28T21:41:50.070Z,51.98
2018-06-28T21:43:30.127Z,51.91
2018-06-28T21:45:28.146Z,51.60
2018-06-28T21:48:54.336Z,51.32
2018-06-28T21:50:35.827Z,51.44
2018-06-28T21:52:22.700Z,51.78
2018-06-28T21:54:03.925Z,51.09
2018-06-28T21:55:43.282Z,51.48
2018-06-28T21:57:20.534Z,51.04
2018-06-28T21:59:06.453Z,51.47
2018-06-28T22:00:46.031Z,51.40
2018-06-28T22:02:23.608Z,51.09
2018-06-28T22:04:00.373Z,51.99
2018-06-28T22:05:36.566Z,51.15
2018-06-28T22:07:12.673Z,51.60
2018-06-28T22:08:49.046Z,52.08
2018-06-28T22:10:27.886Z,51.48
2018-06-28T22:12:09.231Z,52.21
2018-06-28T22:13:49.559Z,51.47
2018-06-28T22:15:31.380Z,52.03
2018-06-28T22:17:11.716Z,52.77
2018-06-28T22:18:50.167Z,52.90
2018-06-28T22:20:27.498Z,52.35
2018-06-28T22:23:55.043Z,51.93